Time;durP1;ratioP1;P1;durP2;ratioP2;P2;SDS_P1;SDS_P2;PMS_P1;PMS_P2;Temp;Humidity;BMP_temperature;BMP_pressure;BME280_temperature;BME280_humidity;BME280_pressure;Samples;Min_cycle;Max_cycle;Signal;HPM_P1;HPM_P2
2023/03/28 00:00:20;;;;;;;6.47;1.83;;;0.30;99.90;;;;;;5042359;28;20111;-64
2023/03/28 00:02:46;;;;;;;9.77;2.37;;;0.30;99.90;;;;;;5043800;28;20033;-66
2023/03/28 00:05:12;;;;;;;15.43;2.67;;;0.30;99.90;;;;;;5043275;28;20090;-67
2023/03/28 00:07:38;;;;;;;20.80;2.90;;;0.20;99.90;;;;;;5043888;28;20132;-68
2023/03/28 00:10:06;;;;;;;9.47;1.87;;;0.20;99.90;;;;;;5036093;28;20048;-68
2023/03/28 00:12:32;;;;;;;5.37;2.03;;;0.10;99.90;;;;;;5049354;28;20037;-66
2023/03/28 00:14:57;;;;;;;13.33;2.20;;;0.20;99.90;;;;;;5045915;28;20040;-68
2023/03/28 00:17:23;;;;;;;7.47;2.40;;;0.10;99.90;;;;;;5044737;28;20026;-68
2023/03/28 00:19:52;;;;;;;17.77;2.60;;;0.10;99.90;;;;;;5046404;28;20114;-66
2023/03/28 00:22:19;;;;;;;10.07;2.60;;;0.10;99.90;;;;;;5047565;28;20028;-65
2023/03/28 00:24:46;;;;;;;14.43;2.50;;;0.00;99.90;;;;;;5047041;28;20029;-65
2023/03/28 00:27:12;;;;;;;9.33;2.33;;;0.10;99.90;;;;;;5048756;28;20509;-68
2023/03/28 00:29:37;;;;;;;10.97;2.67;;;0.00;99.90;;;;;;5046844;28;20037;-66
2023/03/28 00:32:03;;;;;;;5.47;1.80;;;-0.10;99.90;;;;;;5048340;28;20033;-66
2023/03/28 00:34:29;;;;;;;15.03;2.50;;;-0.10;99.90;;;;;;5048395;28;20541;-66
2023/03/28 00:36:54;;;;;;;10.97;2.40;;;-0.10;99.90;;;;;;5045155;28;20025;-66
2023/03/28 00:39:20;;;;;;;9.47;1.77;;;-0.10;99.90;;;;;;5044292;28;20033;-66
2023/03/28 00:41:46;;;;;;;7.30;2.43;;;-0.10;99.90;;;;;;5020825;28;20037;-66
2023/03/28 00:44:39;;;;;;;5.77;2.73;;;-0.20;99.90;;;;;;5043621;28;20025;-69
2023/03/28 00:47:11;;;;;;;8.23;2.43;;;-0.20;99.90;;;;;;5045202;28;20029;-65
2023/03/28 00:49:37;;;;;;;16.93;2.70;;;-0.20;99.90;;;;;;5041614;28;20048;-67
2023/03/28 00:52:03;;;;;;;17.47;2.57;;;-0.20;99.90;;;;;;5042699;28;20029;-66
2023/03/28 00:54:37;;;;;;;5.27;1.83;;;-0.30;99.90;;;;;;5043534;28;20420;-66
2023/03/28 00:57:03;;;;;;;14.80;1.90;;;-0.20;99.90;;;;;;5041162;28;20028;-66
2023/03/28 00:59:32;;;;;;;15.77;2.00;;;-0.20;99.90;;;;;;5047033;28;20021;-67
2023/03/28 01:01:58;;;;;;;17.63;2.63;;;-0.20;99.90;;;;;;5042666;28;20104;-66
2023/03/28 01:04:32;;;;;;;16.53;2.17;;;-0.30;99.90;;;;;;5042643;28;20029;-67
2023/03/28 01:06:58;;;;;;;14.48;2.47;;;-0.30;99.90;;;;;;5047647;28;20117;-66
2023/03/28 01:09:23;;;;;;;5.97;1.80;;;-0.20;99.90;;;;;;5029267;28;20572;-66
2023/03/28 01:11:51;;;;;;;9.47;2.07;;;-0.10;99.90;;;;;;5045372;28;20374;-67
2023/03/28 01:14:19;;;;;;;11.60;2.50;;;-0.10;99.90;;;;;;5038747;28;20383;-65
2023/03/28 01:16:46;;;;;;;11.17;2.70;;;-0.10;99.90;;;;;;5044277;28;20017;-65
2023/03/28 01:19:41;;;;;;;19.80;3.37;;;-0.10;99.90;;;;;;5041811;28;20025;-65
2023/03/28 01:22:11;;;;;;;14.40;2.53;;;-0.10;99.90;;;;;;5045021;28;20013;-68
2023/03/28 01:24:49;;;;;;;5.73;1.53;;;0.00;99.90;;;;;;5043589;28;20033;-65
2023/03/28 01:27:33;;;;;;;9.60;1.97;;;-0.10;99.90;;;;;;5046316;28;20032;-66
2023/03/28 01:30:20;;;;;;;16.98;2.60;;;-0.10;99.90;;;;;;5046136;28;20091;-65
2023/03/28 01:33:01;;;;;;;18.00;2.83;;;-0.20;99.90;;;;;;5044961;28;20494;-67
2023/03/28 01:36:12;;;;;;;11.53;2.03;;;-0.20;99.90;;;;;;5043995;28;20401;-65
2023/03/28 01:38:40;;;;;;;13.70;2.60;;;-0.30;99.90;;;;;;5040511;28;20045;-65
2023/03/28 01:41:31;;;;;;;16.87;1.73;;;-0.30;99.90;;;;;;5046730;28;20021;-66
2023/03/28 01:44:14;;;;;;;13.87;2.97;;;-0.30;99.90;;;;;;5044749;28;20142;-66
2023/03/28 01:46:58;;;;;;;6.30;1.53;;;-0.40;99.90;;;;;;5040987;28;20072;-65
2023/03/28 01:49:39;;;;;;;7.40;2.13;;;-0.40;99.90;;;;;;5049736;28;20021;-66
2023/03/28 01:52:21;;;;;;;11.10;2.07;;;-0.40;99.90;;;;;;5042413;28;20032;-66
2023/03/28 01:54:50;;;;;;;9.73;2.17;;;-0.50;99.90;;;;;;5040215;28;20026;-67
2023/03/28 01:57:25;;;;;;;10.00;1.80;;;-0.50;99.90;;;;;;5041354;28;20497;-66
2023/03/28 02:00:22;;;;;;;5.83;2.07;;;-0.60;99.90;;;;;;5041650;28;20534;-66
2023/03/28 02:02:55;;;;;;;17.37;2.50;;;-0.70;99.90;;;;;;5040905;28;20037;-66
2023/03/28 02:05:22;;;;;;;6.93;1.80;;;-0.70;99.90;;;;;;5043751;28;20022;-64
2023/03/28 02:07:50;;;;;;;12.37;2.33;;;-0.80;99.90;;;;;;5042123;28;20167;-66
2023/03/28 02:10:20;;;;;;;9.53;2.87;;;-0.80;99.90;;;;;;5032514;28;20632;-65
2023/03/28 02:12:50;;;;;;;13.67;3.67;;;-0.80;99.90;;;;;;5063387;28;20025;-65
2023/03/28 02:15:20;;;;;;;9.13;2.80;;;-0.90;99.90;;;;;;5049384;28;20112;-66
2023/03/28 02:17:51;;;;;;;9.50;2.30;;;-0.90;99.90;;;;;;5048700;28;20033;-66
2023/03/28 02:20:19;;;;;;;6.43;2.90;;;-1.00;99.90;;;;;;5049552;28;20021;-66
2023/03/28 02:22:53;;;;;;;15.53;2.77;;;-1.00;99.90;;;;;;5049618;28;20717;-65
2023/03/28 02:25:19;;;;;;;5.63;2.17;;;-1.00;99.90;;;;;;5045341;28;20040;-66
2023/03/28 02:27:48;;;;;;;17.23;3.30;;;-0.90;99.90;;;;;;5043622;28;20033;-66
2023/03/28 02:30:14;;;;;;;18.00;2.70;;;-1.00;99.90;;;;;;5041484;28;20025;-65
2023/03/28 02:32:42;;;;;;;11.90;3.00;;;-0.90;99.90;;;;;;5042877;28;20036;-66
2023/03/28 02:35:08;;;;;;;7.43;2.63;;;-0.90;99.90;;;;;;5046769;28;20024;-66
2023/03/28 02:37:34;;;;;;;19.33;3.13;;;-1.00;99.90;;;;;;5047178;28;20082;-66
2023/03/28 02:40:32;;;;;;;14.90;3.27;;;-1.00;99.90;;;;;;5049195;28;20033;-66
2023/03/28 02:43:06;;;;;;;11.93;3.17;;;-1.00;99.90;;;;;;5038560;28;20025;-64
2023/03/28 02:46:02;;;;;;;12.00;4.10;;;-1.10;99.90;;;;;;5041097;28;20049;-66
2023/03/28 02:48:28;;;;;;;13.00;3.50;;;-1.20;99.90;;;;;;5043555;28;20102;-66
2023/03/28 02:51:10;;;;;;;20.13;3.97;;;-1.20;99.90;;;;;;5039826;28;20026;-66
2023/03/28 02:53:50;;;;;;;18.67;3.23;;;-1.20;99.90;;;;;;5041157;28;20124;-66
2023/03/28 02:56:49;;;;;;;15.33;3.40;;;-1.30;99.90;;;;;;5039162;28;20052;-66
2023/03/28 02:59:26;;;;;;;11.50;3.40;;;-1.30;99.90;;;;;;5039478;28;20072;-66
2023/03/28 03:01:52;;;;;;;20.37;4.57;;;-1.30;99.90;;;;;;5044914;28;20028;-66
2023/03/28 03:04:18;;;;;;;16.00;3.47;;;-1.30;99.90;;;;;;5044656;28;20033;-65
2023/03/28 03:06:44;;;;;;;11.43;3.70;;;-1.20;99.90;;;;;;5042022;28;20620;-66
2023/03/28 03:09:11;;;;;;;13.73;4.00;;;-1.20;99.90;;;;;;5026367;28;20041;-66
2023/03/28 03:11:37;;;;;;;14.93;3.53;;;-1.10;99.90;;;;;;5044582;28;20091;-66
2023/03/28 03:14:03;;;;;;;17.30;3.63;;;-1.20;99.90;;;;;;5046948;28;20029;-66
2023/03/28 03:16:28;;;;;;;14.53;3.50;;;-1.20;99.90;;;;;;5043874;28;20793;-66
2023/03/28 03:18:56;;;;;;;13.73;3.30;;;-1.20;99.90;;;;;;5040587;28;20351;-66
2023/03/28 03:21:22;;;;;;;13.50;3.77;;;-1.20;99.90;;;;;;5044952;28;20031;-66
2023/03/28 03:23:48;;;;;;;12.60;4.83;;;-1.20;99.90;;;;;;5040700;28;20034;-65
2023/03/28 03:26:14;;;;;;;13.93;4.70;;;-1.20;99.90;;;;;;5043794;28;20033;-65
2023/03/28 03:28:40;;;;;;;12.27;4.67;;;-1.30;99.90;;;;;;5045500;28;20076;-64
2023/03/28 03:31:06;;;;;;;14.33;4.20;;;-1.30;99.90;;;;;;5041882;28;20490;-66
2023/03/28 03:33:31;;;;;;;18.17;4.73;;;-1.40;99.90;;;;;;5045869;28;20028;-65
2023/03/28 03:35:57;;;;;;;17.10;5.23;;;-1.40;99.90;;;;;;5044267;28;20482;-65
2023/03/28 03:38:22;;;;;;;13.37;3.43;;;-1.40;99.90;;;;;;5045362;28;20134;-66
2023/03/28 03:40:48;;;;;;;11.40;3.77;;;-1.30;99.90;;;;;;5049369;28;20051;-65
2023/03/28 03:43:14;;;;;;;15.17;4.07;;;-1.30;99.90;;;;;;5050816;28;20139;-65
2023/03/28 03:45:40;;;;;;;17.17;4.13;;;-1.20;99.90;;;;;;5052097;28;20025;-65
2023/03/28 03:48:05;;;;;;;10.37;3.80;;;-1.10;99.90;;;;;;5045001;28;20093;-66
2023/03/28 03:50:31;;;;;;;18.50;4.90;;;-1.10;99.90;;;;;;5051816;28;20106;-66
2023/03/28 03:52:57;;;;;;;17.23;5.40;;;-1.20;99.90;;;;;;5052272;28;20025;-66
2023/03/28 03:55:25;;;;;;;15.17;4.33;;;-1.20;99.90;;;;;;5051220;28;20028;-67
2023/03/28 03:57:51;;;;;;;16.03;6.23;;;-1.30;99.90;;;;;;5049221;28;20024;-65
2023/03/28 04:00:17;;;;;;;12.00;5.27;;;-1.30;99.90;;;;;;5049732;28;20025;-65
2023/03/28 04:02:43;;;;;;;23.80;4.70;;;-1.40;99.90;;;;;;5049806;28;20051;-66
2023/03/28 04:05:09;;;;;;;15.37;4.40;;;-1.40;99.90;;;;;;5050083;28;20502;-66
2023/03/28 04:07:36;;;;;;;10.70;4.43;;;-1.50;99.90;;;;;;5049480;28;20021;-65
2023/03/28 04:10:02;;;;;;;19.03;5.40;;;-1.50;99.90;;;;;;5034830;28;20041;-66
2023/03/28 04:12:27;;;;;;;15.80;4.77;;;-1.60;99.90;;;;;;5048676;28;20082;-65
2023/03/28 04:14:53;;;;;;;14.53;4.93;;;-1.60;99.90;;;;;;5049078;28;20112;-65
2023/03/28 04:17:20;;;;;;;18.80;5.27;;;-1.60;99.90;;;;;;5047910;28;20400;-65
2023/03/28 04:19:46;;;;;;;30.27;4.73;;;-1.60;99.90;;;;;;5050552;28;20013;-66
2023/03/28 04:22:12;;;;;;;13.57;4.70;;;-1.70;99.90;;;;;;5050812;28;20029;-65
2023/03/28 04:24:40;;;;;;;16.27;5.70;;;-1.70;99.90;;;;;;5046857;28;20059;-65
2023/03/28 04:27:08;;;;;;;17.37;4.53;;;-1.70;99.90;;;;;;5050132;28;20024;-65
2023/03/28 04:29:35;;;;;;;15.67;5.50;;;-1.70;99.90;;;;;;5051068;28;20028;-66
2023/03/28 04:32:04;;;;;;;15.87;5.60;;;-1.80;99.90;;;;;;5045288;28;20127;-65
2023/03/28 04:34:30;;;;;;;9.67;5.30;;;-1.80;99.90;;;;;;5045870;28;20033;-65
2023/03/28 04:37:00;;;;;;;17.77;5.60;;;-1.80;99.90;;;;;;5050332;28;20021;-66
2023/03/28 04:39:27;;;;;;;15.57;6.17;;;-1.80;99.90;;;;;;5051326;28;20021;-67
2023/03/28 04:41:54;;;;;;;23.37;5.37;;;-1.80;99.90;;;;;;5049435;28;20025;-66
2023/03/28 04:44:20;;;;;;;20.73;5.63;;;-1.80;99.90;;;;;;5048981;28;20074;-68
2023/03/28 04:46:47;;;;;;;17.77;5.43;;;-1.80;99.90;;;;;;5046497;28;20518;-67
2023/03/28 04:49:13;;;;;;;18.37;5.73;;;-1.80;99.90;;;;;;5047490;28;20053;-65
2023/03/28 04:51:39;;;;;;;14.70;5.67;;;-1.80;99.90;;;;;;5048101;28;20025;-66
2023/03/28 04:54:05;;;;;;;26.83;5.83;;;-1.80;99.90;;;;;;5043869;28;20483;-65
2023/03/28 04:56:30;;;;;;;19.97;6.60;;;-1.80;99.90;;;;;;5049622;28;20029;-65
2023/03/28 04:58:56;;;;;;;16.67;6.63;;;-1.80;99.90;;;;;;5049126;28;20107;-65
2023/03/28 05:01:24;;;;;;;12.07;6.37;;;-1.90;99.90;;;;;;5047061;28;20476;-66
2023/03/28 05:03:50;;;;;;;18.87;6.20;;;-1.80;99.90;;;;;;5045365;28;20029;-66
2023/03/28 05:06:16;;;;;;;27.37;6.43;;;-1.90;99.90;;;;;;5051510;28;20032;-66
2023/03/28 05:08:42;;;;;;;18.93;5.70;;;-1.90;99.90;;;;;;5049624;28;20043;-66
2023/03/28 05:11:08;;;;;;;19.60;7.17;;;-1.90;99.90;;;;;;5032172;28;20123;-66
2023/03/28 05:13:34;;;;;;;16.80;6.57;;;-1.90;99.90;;;;;;5046639;28;20063;-66
2023/03/28 05:16:00;;;;;;;15.47;6.77;;;-1.90;99.90;;;;;;5049645;28;20474;-65
2023/03/28 05:18:25;;;;;;;14.87;7.00;;;-1.90;99.90;;;;;;5048025;28;20021;-65
2023/03/28 05:20:51;;;;;;;16.23;7.07;;;-1.80;99.90;;;;;;5050000;28;20028;-66
2023/03/28 05:23:16;;;;;;;19.27;6.97;;;-1.80;99.90;;;;;;5048819;28;20402;-65
2023/03/28 05:25:42;;;;;;;21.20;5.97;;;-1.80;99.90;;;;;;5049407;28;20134;-68
2023/03/28 05:28:08;;;;;;;31.63;7.47;;;-1.80;99.90;;;;;;5049028;28;20100;-65
2023/03/28 05:30:34;;;;;;;22.80;7.93;;;-1.80;99.90;;;;;;5047260;28;20534;-65
2023/03/28 05:33:00;;;;;;;19.97;6.63;;;-1.70;99.90;;;;;;5046936;28;20036;-65
2023/03/28 05:35:26;;;;;;;23.63;7.10;;;-1.70;99.90;;;;;;5045044;28;20017;-65
2023/03/28 05:37:51;;;;;;;16.63;7.27;;;-1.70;99.90;;;;;;5048199;28;20021;-64
2023/03/28 05:40:17;;;;;;;18.80;6.80;;;-1.60;99.90;;;;;;5046575;28;20478;-65
2023/03/28 05:42:43;;;;;;;28.00;6.90;;;-1.60;99.90;;;;;;5049833;28;20025;-67
2023/03/28 05:45:11;;;;;;;18.63;7.57;;;-1.50;99.90;;;;;;5048136;28;20047;-68
2023/03/28 05:47:37;;;;;;;20.20;7.40;;;-1.50;99.90;;;;;;5049101;28;20044;-65
2023/03/28 05:50:03;;;;;;;24.10;7.50;;;-1.40;99.90;;;;;;5046941;28;20021;-66
2023/03/28 05:52:29;;;;;;;16.33;7.43;;;-1.30;99.90;;;;;;5051673;28;20467;-65
2023/03/28 05:54:55;;;;;;;17.87;8.00;;;-1.20;99.90;;;;;;5050699;28;20020;-66
2023/03/28 05:57:21;;;;;;;22.13;7.43;;;-1.10;99.90;;;;;;5045932;28;20049;-65
2023/03/28 05:59:47;;;;;;;12.83;7.23;;;-1.10;99.90;;;;;;5048697;28;20036;-65
2023/03/28 06:02:15;;;;;;;16.20;6.80;;;-0.90;99.90;;;;;;5043526;28;20029;-66
2023/03/28 06:04:41;;;;;;;18.00;7.83;;;-0.70;99.90;;;;;;5047733;28;20026;-65
2023/03/28 06:07:07;;;;;;;18.75;8.65;;;-0.50;99.90;;;;;;5041253;28;20025;-65
2023/03/28 06:09:34;;;;;;;27.52;9.35;;;-0.10;99.90;;;;;;5026968;28;20559;-66
2023/03/28 06:12:00;;;;;;;16.00;6.97;;;0.40;99.90;;;;;;5047726;28;20040;-65
2023/03/28 06:14:26;;;;;;;7.07;3.90;;;1.10;99.90;;;;;;5047271;28;20031;-65
2023/03/28 06:16:52;;;;;;;17.85;7.72;;;1.90;99.90;;;;;;5048630;28;20518;-66
2023/03/28 06:19:18;;;;;;;10.80;6.07;;;2.60;99.90;;;;;;5048258;28;20035;-65
2023/03/28 06:21:43;;;;;;;14.27;5.10;;;2.60;99.90;;;;;;5049822;28;20079;-66
2023/03/28 06:24:10;;;;;;;10.13;4.32;;;2.40;99.90;;;;;;5047639;28;20395;-65
2023/03/28 06:26:36;;;;;;;10.65;3.70;;;2.30;99.90;;;;;;5046436;28;20021;-66
2023/03/28 06:29:02;;;;;;;11.35;4.07;;;2.30;99.90;;;;;;5047802;28;20079;-65
2023/03/28 06:31:28;;;;;;;10.68;4.90;;;2.20;99.90;;;;;;5047479;28;20665;-65
2023/03/28 06:33:54;;;;;;;11.93;3.45;;;2.30;99.90;;;;;;5043725;28;20028;-66
2023/03/28 06:36:20;;;;;;;16.42;4.30;;;2.20;99.90;;;;;;5045801;28;20099;-65
2023/03/28 06:38:46;;;;;;;13.27;4.45;;;2.00;99.90;;;;;;5047975;28;20063;-65
2023/03/28 06:41:12;;;;;;;10.82;3.70;;;2.00;99.90;;;;;;5042956;28;20037;-65
2023/03/28 06:43:37;;;;;;;8.02;3.70;;;2.30;99.90;;;;;;5046548;28;20098;-66
2023/03/28 06:46:03;;;;;;;6.50;3.35;;;2.40;99.90;;;;;;5049471;28;20314;-64
2023/03/28 06:48:30;;;;;;;11.52;3.55;;;2.60;99.90;;;;;;5047405;28;20379;-65
2023/03/28 06:50:57;;;;;;;8.52;2.85;;;3.10;99.90;;;;;;5049351;28;20028;-65
2023/03/28 06:53:24;;;;;;;10.88;3.10;;;3.90;99.90;;;;;;5045759;28;20028;-65
2023/03/28 06:55:51;;;;;;;11.98;3.05;;;4.90;99.90;;;;;;5044450;28;20509;-66
2023/03/28 06:58:17;;;;;;;11.60;2.72;;;5.40;99.90;;;;;;5045810;28;20041;-67
2023/03/28 07:00:43;;;;;;;6.97;2.92;;;6.40;99.90;;;;;;5045922;28;20036;-67
2023/03/28 07:03:08;;;;;;;4.68;2.17;;;6.90;99.90;;;;;;5042796;28;20041;-66
2023/03/28 07:05:39;;;;;;;10.25;2.95;;;7.30;99.90;;;;;;5043469;28;20398;-66
2023/03/28 07:08:10;;;;;;;10.40;3.20;;;7.80;99.90;;;;;;5046289;28;20033;-66
2023/03/28 07:10:36;;;;;;;6.93;3.33;;;8.60;99.90;;;;;;5025968;28;20194;-65
2023/03/28 07:13:02;;;;;;;6.40;2.83;;;9.90;99.90;;;;;;5048622;28;20017;-66
2023/03/28 07:15:28;;;;;;;10.30;2.78;;;11.40;96.70;;;;;;5046241;28;20096;-66
2023/03/28 07:17:53;;;;;;;6.72;2.47;;;11.70;93.80;;;;;;5044222;28;20163;-66
2023/03/28 07:20:20;;;;;;;4.95;2.38;;;10.10;95.50;;;;;;5046359;28;20021;-66
2023/03/28 07:22:46;;;;;;;9.82;2.80;;;11.10;94.70;;;;;;5045404;28;20025;-66
2023/03/28 07:25:12;;;;;;;7.68;3.35;;;11.30;93.10;;;;;;5048131;28;20031;-66
2023/03/28 07:27:37;;;;;;;7.50;2.92;;;10.60;93.70;;;;;;5048132;28;20517;-65
2023/03/28 07:30:05;;;;;;;7.88;3.83;;;10.60;94.00;;;;;;5049425;28;20028;-65
2023/03/28 07:32:31;;;;;;;4.80;2.15;;;10.00;93.10;;;;;;5040189;28;20035;-66
2023/03/28 07:34:57;;;;;;;5.03;2.05;;;9.70;95.30;;;;;;5040865;28;20411;-66
2023/03/28 07:37:23;;;;;;;8.30;2.80;;;11.00;93.20;;;;;;5049202;28;20017;-66
2023/03/28 07:39:48;;;;;;;3.70;2.22;;;11.10;90.80;;;;;;5047865;28;20035;-66
2023/03/28 07:42:15;;;;;;;5.43;2.17;;;11.70;90.80;;;;;;5050021;28;20025;-66
2023/03/28 07:44:41;;;;;;;7.38;1.92;;;11.90;91.50;;;;;;5047882;28;20036;-66
2023/03/28 07:47:07;;;;;;;8.65;2.92;;;12.30;90.50;;;;;;5044738;28;20504;-66
2023/03/28 07:49:33;;;;;;;10.27;2.60;;;13.00;87.70;;;;;;5041185;28;20386;-66
2023/03/28 07:51:59;;;;;;;6.47;2.10;;;13.10;85.90;;;;;;5044050;28;20025;-65
2023/03/28 07:54:27;;;;;;;8.45;2.00;;;13.30;88.30;;;;;;5047151;28;20376;-67
2023/03/28 07:56:53;;;;;;;8.02;2.83;;;13.30;86.40;;;;;;5049581;28;20013;-65
2023/03/28 07:59:19;;;;;;;8.95;2.28;;;12.40;85.70;;;;;;5046682;28;20044;-67
2023/03/28 08:01:45;;;;;;;6.80;2.08;;;12.40;90.00;;;;;;5046882;28;20028;-66
2023/03/28 08:04:12;;;;;;;9.32;2.50;;;12.80;86.70;;;;;;5041004;28;20086;-67
2023/03/28 08:06:39;;;;;;;8.55;2.45;;;12.50;89.20;;;;;;5046048;28;20037;-66
2023/03/28 08:09:07;;;;;;;4.53;1.98;;;12.60;88.00;;;;;;5047189;28;20060;-66
2023/03/28 08:11:34;;;;;;;17.42;6.78;;;12.30;90.20;;;;;;5030577;28;20041;-66
2023/03/28 08:14:00;;;;;;;7.35;3.15;;;12.50;87.30;;;;;;5040601;28;20048;-66
2023/03/28 08:16:26;;;;;;;7.13;2.08;;;12.50;88.00;;;;;;5039457;28;20024;-66
2023/03/28 08:18:52;;;;;;;7.82;1.80;;;12.30;86.20;;;;;;5040576;28;20037;-66
2023/03/28 08:21:17;;;;;;;5.93;1.95;;;12.00;86.40;;;;;;5048666;28;20078;-67
2023/03/28 08:23:43;;;;;;;10.18;2.05;;;12.10;89.80;;;;;;5044825;28;20233;-64
2023/03/28 08:26:09;;;;;;;8.75;2.47;;;12.50;88.10;;;;;;5048008;28;20028;-65
2023/03/28 08:28:36;;;;;;;6.43;1.85;;;11.80;90.00;;;;;;5044586;28;20104;-65
2023/03/28 08:31:08;;;;;;;7.47;2.40;;;12.90;87.90;;;;;;5044921;28;20029;-66
2023/03/28 08:33:34;;;;;;;8.50;2.67;;;12.30;83.90;;;;;;5050109;28;20028;-65
2023/03/28 08:36:00;;;;;;;5.80;2.30;;;11.90;87.30;;;;;;5048190;28;20029;-65
2023/03/28 08:38:26;;;;;;;9.85;2.47;;;11.50;87.70;;;;;;5051194;28;20638;-64
2023/03/28 08:41:15;;;;;;;9.77;2.10;;;12.00;88.30;;;;;;5052709;28;20037;-65
2023/03/28 08:43:53;;;;;;;5.05;1.80;;;13.50;89.10;;;;;;5047842;28;20036;-66
2023/03/28 08:46:22;;;;;;;10.20;2.65;;;13.50;83.60;;;;;;5048637;28;20430;-66
2023/03/28 08:48:50;;;;;;;10.00;2.42;;;13.20;86.30;;;;;;5047676;28;20025;-65
2023/03/28 08:51:42;;;;;;;14.23;2.33;;;12.90;86.20;;;;;;5052151;28;20033;-64
2023/03/28 08:54:32;;;;;;;6.07;2.20;;;12.60;87.40;;;;;;5049940;28;20040;-66
2023/03/28 08:57:02;;;;;;;7.60;2.03;;;12.80;87.40;;;;;;5049793;28;20045;-66
2023/03/28 08:59:33;;;;;;;8.40;2.40;;;12.70;86.40;;;;;;5049473;28;20017;-65
2023/03/28 09:01:59;;;;;;;10.80;2.78;;;12.60;89.60;;;;;;5047361;28;20031;-66
2023/03/28 09:04:33;;;;;;;5.20;1.80;;;12.90;85.00;;;;;;5040855;28;20025;-65
2023/03/28 09:07:28;;;;;;;12.13;2.00;;;13.10;87.70;;;;;;5049035;28;20492;-65
2023/03/28 09:10:09;;;;;;;11.75;2.45;;;13.90;88.20;;;;;;5028803;28;20057;-66
2023/03/28 09:13:09;;;;;;;5.20;1.38;;;13.10;86.00;;;;;;5047177;28;20033;-66
2023/03/28 09:15:46;;;;;;;9.07;2.67;;;12.40;81.90;;;;;;5042621;28;20041;-65
2023/03/28 09:18:22;;;;;;;4.35;1.38;;;12.00;85.00;;;;;;5047711;28;20025;-65
2023/03/28 09:20:56;;;;;;;10.13;3.60;;;11.40;83.70;;;;;;5049259;28;20102;-66
2023/03/28 09:23:33;;;;;;;;;;;10.90;87.00;;;;;;5043822;28;20052;-64
2023/03/28 09:26:11;;;;;;;8.15;2.35;;;10.70;86.80;;;;;;5047864;28;19909;-65
2023/03/28 09:28:51;;;;;;;19.50;4.75;;;9.80;89.20;;;;;;5045939;28;20849;-65
2023/03/28 09:31:21;;;;;;;18.90;5.82;;;9.40;90.50;;;;;;5042284;28;20171;-65
2023/03/28 09:33:48;;;;;;;8.05;3.28;;;9.30;90.70;;;;;;5040808;28;20021;-66
2023/03/28 09:36:24;;;;;;;8.43;3.00;;;9.30;88.70;;;;;;5048366;28;20562;-65
2023/03/28 09:38:57;;;;;;;27.45;5.50;;;9.00;91.20;;;;;;5045590;28;20047;-65
2023/03/28 09:42:00;;;;;;;35.28;13.13;;;8.80;91.20;;;;;;5046435;28;20020;-65
2023/03/28 09:44:35;;;;;;;15.13;5.78;;;8.40;90.30;;;;;;5047294;28;20028;-64
2023/03/28 09:47:05;;;;;;;24.17;8.82;;;8.70;90.80;;;;;;5051083;28;20478;-64
2023/03/28 09:49:30;;;;;;;31.25;12.65;;;9.40;89.10;;;;;;5047714;28;20044;-64
2023/03/28 09:51:56;;;;;;;14.93;4.68;;;9.20;88.80;;;;;;5047914;28;20029;-64
2023/03/28 09:54:34;;;;;;;10.77;1.80;;;9.10;89.80;;;;;;5042248;28;20632;-65
2023/03/28 09:57:03;;;;;;;4.78;1.77;;;9.10;89.30;;;;;;5047073;28;20514;-65
2023/03/28 09:59:31;;;;;;;8.52;4.03;;;9.00;89.60;;;;;;5046501;28;20029;-64
2023/03/28 10:01:58;;;;;;;8.65;2.55;;;9.10;90.00;;;;;;5048829;28;20063;-65
2023/03/28 10:04:26;;;;;;;13.82;4.05;;;9.30;90.80;;;;;;5045237;28;20021;-66
2023/03/28 10:06:53;;;;;;;4.07;1.15;;;10.10;90.00;;;;;;5042157;28;20077;-64
2023/03/28 10:09:28;;;;;;;5.15;1.77;;;10.70;85.40;;;;;;5045513;28;20029;-65
2023/03/28 10:11:59;;;;;;;5.97;1.23;;;10.70;83.80;;;;;;5026524;28;20037;-65
2023/03/28 10:14:32;;;;;;;3.78;1.33;;;10.30;81.60;;;;;;5043536;28;20021;-66
2023/03/28 10:17:04;;;;;;;5.22;1.38;;;10.60;86.20;;;;;;5045284;28;20024;-66
2023/03/28 10:19:36;;;;;;;4.57;1.30;;;11.20;88.10;;;;;;5042553;28;20518;-65
2023/03/28 10:22:11;;;;;;;7.57;1.33;;;11.80;83.60;;;;;;5042098;28;20037;-65
2023/03/28 10:24:38;;;;;;;6.28;1.40;;;12.50;79.60;;;;;;5040737;28;20029;-65
2023/03/28 10:27:24;;;;;;;5.88;1.10;;;12.90;77.10;;;;;;5050534;28;20032;-64
2023/03/28 10:29:52;;;;;;;7.15;1.70;;;13.00;78.60;;;;;;5047478;28;20041;-64
2023/03/28 10:32:29;;;;;;;6.55;1.60;;;12.70;75.50;;;;;;5047254;28;20855;-64
2023/03/28 10:35:06;;;;;;;4.57;1.88;;;12.30;78.30;;;;;;5045249;28;20032;-64
2023/03/28 10:37:33;;;;;;;8.07;1.58;;;11.90;78.70;;;;;;5043438;28;20426;-65
2023/03/28 10:40:06;;;;;;;2.53;1.00;;;11.60;83.70;;;;;;5046002;28;20035;-66
2023/03/28 10:42:48;;;;;;;5.43;1.50;;;11.60;79.50;;;;;;5044469;28;20390;-64
2023/03/28 10:45:35;;;;;;;8.10;1.70;;;11.20;79.70;;;;;;5047377;28;20033;-65
2023/03/28 10:48:09;;;;;;;7.00;1.35;;;11.10;80.90;;;;;;5045045;28;20047;-63
2023/03/28 10:50:40;;;;;;;5.95;1.10;;;10.60;80.30;;;;;;5041118;28;20478;-64
2023/03/28 10:53:29;;;;;;;7.88;1.63;;;10.30;83.70;;;;;;5038288;28;20028;-64
2023/03/28 10:56:19;;;;;;;1.77;0.90;;;10.70;83.00;;;;;;5045747;28;21685;-64
2023/03/28 10:59:06;;;;;;;4.30;1.13;;;10.70;79.50;;;;;;5040552;28;20022;-64
2023/03/28 11:01:59;;;;;;;6.32;1.90;;;10.70;81.10;;;;;;5052018;28;20057;-64
2023/03/28 11:04:51;;;;;;;7.60;2.35;;;10.80;81.90;;;;;;5041441;28;20385;-63
2023/03/28 11:07:35;;;;;;;2.70;1.27;;;11.10;82.20;;;;;;5042270;28;20021;-65
2023/03/28 11:10:39;;;;;;;21.92;7.75;;;10.70;78.40;;;;;;5042738;28;20429;-65
2023/03/28 11:13:23;;;;;;;21.80;7.50;;;10.20;81.50;;;;;;5040105;28;20123;-65
2023/03/28 11:16:07;;;;;;;13.77;3.45;;;10.00;81.10;;;;;;5060708;28;20075;-63
2023/03/28 11:18:51;;;;;;;5.15;2.08;;;10.20;84.20;;;;;;5038741;28;20028;-64
2023/03/28 11:21:31;;;;;;;4.97;1.40;;;10.40;81.50;;;;;;5046895;28;20024;-64
2023/03/28 11:24:29;;;;;;;4.32;1.30;;;10.40;83.00;;;;;;5043594;28;20025;-65
2023/03/28 11:27:25;;;;;;;5.03;2.30;;;10.90;80.40;;;;;;5035886;28;20076;-64
2023/03/28 11:29:58;;;;;;;5.22;2.55;;;10.60;76.90;;;;;;5045155;28;20043;-63
2023/03/28 11:32:29;;;;;;;2.20;1.10;;;10.80;75.00;;;;;;5044869;28;20566;-64
2023/03/28 11:35:12;;;;;;;6.35;1.77;;;11.00;75.50;;;;;;5041621;28;20477;-64
2023/03/28 11:38:03;;;;;;;2.08;0.85;;;10.70;76.20;;;;;;5047472;28;20025;-65
2023/03/28 11:40:33;;;;;;;4.57;1.25;;;11.00;73.80;;;;;;5046103;28;20049;-65
2023/03/28 11:43:08;;;;;;;2.80;1.10;;;11.30;74.50;;;;;;5048002;28;20398;-65
2023/03/28 11:45:37;;;;;;;6.68;2.78;;;11.40;74.10;;;;;;5046877;28;20465;-65
2023/03/28 11:48:09;;;;;;;6.65;2.42;;;11.30;75.60;;;;;;5046496;28;20028;-65
2023/03/28 11:50:40;;;;;;;4.85;1.55;;;11.10;75.20;;;;;;5049365;28;20055;-65
2023/03/28 11:53:23;;;;;;;7.68;3.38;;;10.80;73.70;;;;;;5045037;28;20025;-65
2023/03/28 11:56:11;;;;;;;2.75;0.93;;;10.60;76.60;;;;;;5045250;28;20060;-65
2023/03/28 11:58:42;;;;;;;4.80;1.35;;;11.00;78.20;;;;;;5046214;28;20040;-63
2023/03/28 12:01:19;;;;;;;5.82;1.30;;;11.20;78.30;;;;;;5046841;28;20575;-65
2023/03/28 12:04:10;;;;;;;4.32;1.45;;;11.10;73.50;;;;;;5047289;28;20032;-63
2023/03/28 12:06:51;;;;;;;6.95;1.10;;;10.90;75.20;;;;;;5051702;28;20017;-64
2023/03/28 12:09:31;;;;;;;3.03;1.15;;;11.10;73.90;;;;;;5050507;28;20021;-63
2023/03/28 12:12:23;;;;;;;6.18;2.67;;;11.30;73.00;;;;;;5033252;28;20045;-64
2023/03/28 12:14:54;;;;;;;6.13;1.40;;;10.80;75.10;;;;;;5047030;28;20083;-65
2023/03/28 12:17:37;;;;;;;5.85;1.88;;;11.00;77.10;;;;;;5043915;28;20364;-65
2023/03/28 12:20:07;;;;;;;3.45;1.10;;;11.20;76.50;;;;;;5042112;28;20560;-64
2023/03/28 12:22:46;;;;;;;3.28;1.55;;;11.00;76.50;;;;;;5051382;28;20052;-64
2023/03/28 12:25:27;;;;;;;1.77;1.15;;;11.40;76.20;;;;;;5053344;28;20021;-64
2023/03/28 12:27:59;;;;;;;4.43;1.23;;;11.60;74.20;;;;;;5050046;28;20075;-65
2023/03/28 12:30:49;;;;;;;6.85;1.73;;;11.90;76.80;;;;;;5048255;28;20100;-65
2023/03/28 12:33:24;;;;;;;4.07;1.30;;;11.80;75.30;;;;;;5049674;28;20055;-63
2023/03/28 12:36:11;;;;;;;7.03;1.83;;;11.70;75.30;;;;;;5046419;28;20103;-63
2023/03/28 12:39:03;;;;;;;6.93;1.73;;;11.50;75.00;;;;;;5047428;28;20587;-65
2023/03/28 12:41:35;;;;;;;5.28;1.08;;;11.90;76.10;;;;;;5051249;28;20072;-65
2023/03/28 12:44:21;;;;;;;4.85;1.52;;;11.80;74.50;;;;;;5045963;28;20089;-64
2023/03/28 12:46:56;;;;;;;4.55;1.05;;;11.70;74.80;;;;;;5048804;28;20040;-65
2023/03/28 12:49:32;;;;;;;4.90;2.17;;;11.80;73.00;;;;;;5045777;28;20060;-65
2023/03/28 12:52:02;;;;;;;6.03;1.05;;;11.50;70.90;;;;;;5050448;28;20029;-65
2023/03/28 12:54:31;;;;;;;2.50;1.33;;;11.30;71.20;;;;;;5047604;28;20083;-64
2023/03/28 12:57:05;;;;;;;5.07;1.38;;;11.10;72.90;;;;;;5045577;28;20025;-64
2023/03/28 12:59:46;;;;;;;3.90;1.17;;;11.00;73.50;;;;;;5038164;28;20376;-64
2023/03/28 13:02:42;;;;;;;2.80;1.05;;;11.00;75.50;;;;;;5046291;28;20099;-65
2023/03/28 13:05:35;;;;;;;2.90;1.10;;;10.90;74.10;;;;;;5045475;28;20486;-64